Time;durP1;ratioP1;P1;durP2;ratioP2;P2;SDS_P1;SDS_P2;PMS_P1;PMS_P2;Temp;Humidity;BMP_temperature;BMP_pressure;BME280_temperature;BME280_humidity;BME280_pressure;Samples;Min_cycle;Max_cycle;Signal;HPM_P1;HPM_P2
2022/07/23 00:00:19;;;;;;;5.90;3.78;;;;;;;-148.14;100.00;65945.72;5004091;28;20394;-88
2022/07/23 00:02:45;;;;;;;4.43;3.53;;;;;;;-148.14;100.00;65945.72;5009671;28;20033;-88
2022/07/23 00:05:14;;;;;;;5.40;3.78;;;;;;;-148.14;100.00;65945.72;5018204;28;20084;-86
2022/07/23 00:07:40;;;;;;;4.88;3.88;;;;;;;-148.14;100.00;65945.72;5004413;28;20033;-88
2022/07/23 00:10:06;;;;;;;6.20;3.65;;;;;;;-148.14;100.00;65945.72;5021296;28;20463;-86
2022/07/23 00:12:33;;;;;;;5.00;3.70;;;;;;;-148.14;100.00;65945.72;5028377;28;20038;-86
2022/07/23 00:14:59;;;;;;;7.88;3.85;;;;;;;-148.14;100.00;65945.72;5027923;28;20083;-88
2022/07/23 00:17:24;;;;;;;4.35;3.70;;;;;;;-148.14;100.00;65945.72;4990199;28;20037;-88
2022/07/23 00:19:50;;;;;;;6.68;3.63;;;;;;;-148.14;100.00;65945.72;5005553;28;20050;-88
2022/07/23 00:22:16;;;;;;;5.13;3.50;;;;;;;-148.14;100.00;65945.72;5021631;28;20468;-87
2022/07/23 00:24:48;;;;;;;6.63;3.90;;;;;;;-148.14;100.00;65945.72;5008312;28;20050;-87
2022/07/23 00:27:13;;;;;;;5.30;3.75;;;;;;;-148.14;100.00;65945.72;4987966;28;20030;-85
2022/07/23 00:29:40;;;;;;;7.40;4.20;;;;;;;-148.14;100.00;65945.72;5010720;28;20400;-85
2022/07/23 00:32:05;;;;;;;8.30;4.00;;;;;;;-148.14;100.00;65945.72;4980713;28;20037;-85
2022/07/23 00:34:31;;;;;;;4.63;4.00;;;;;;;-148.14;100.00;65945.72;4994898;28;20036;-85
2022/07/23 00:36:57;;;;;;;8.20;4.28;;;;;;;-148.14;100.00;65945.72;5030454;28;20121;-84
2022/07/23 00:39:22;;;;;;;8.63;4.22;;;;;;;-148.14;100.00;65945.72;5016580;28;20036;-87
2022/07/23 00:41:51;;;;;;;9.38;4.40;;;;;;;-148.14;100.00;65945.72;5003868;28;20030;-85
2022/07/23 00:44:28;;;;;;;4.75;3.97;;;;;;;-148.14;100.00;65945.72;5014401;28;20514;-84
2022/07/23 00:46:56;;;;;;;6.03;4.38;;;;;;;-148.14;100.00;65945.72;5030136;28;20037;-84
2022/07/23 00:49:27;;;;;;;4.78;3.70;;;;;;;-148.14;100.00;65945.72;5005085;28;20422;-85
2022/07/23 00:51:53;;;;;;;9.23;4.03;;;;;;;-148.14;100.00;65945.72;5023928;28;20034;-84
2022/07/23 00:54:21;;;;;;;6.65;4.35;;;;;;;-148.14;100.00;65945.72;5005027;28;20478;-84
2022/07/23 00:56:47;;;;;;;4.95;4.00;;;;;;;-148.14;100.00;65945.72;5021709;28;20484;-84
2022/07/23 00:59:17;;;;;;;8.05;3.80;;;;;;;-148.14;100.00;65945.72;5004622;28;20128;-84
2022/07/23 01:01:44;;;;;;;7.32;3.85;;;;;;;-148.14;100.00;65945.72;5023656;28;20073;-85
2022/07/23 01:04:10;;;;;;;4.75;3.40;;;;;;;-148.14;100.00;65945.72;5007411;28;20083;-85
2022/07/23 01:06:38;;;;;;;5.05;4.10;;;;;;;-148.14;100.00;65945.72;5019359;28;20033;-83
2022/07/23 01:09:05;;;;;;;7.07;4.20;;;;;;;-148.14;100.00;65945.72;5027238;28;20068;-84
2022/07/23 01:11:33;;;;;;;4.18;3.65;;;;;;;-148.14;100.00;65945.72;5036613;28;20030;-83
2022/07/23 01:13:59;;;;;;;8.48;3.97;;;;;;;-148.14;100.00;65945.72;5020497;28;20513;-84
2022/07/23 01:16:25;;;;;;;8.15;3.92;;;;;;;-148.14;100.00;65945.72;5029020;28;20069;-84
2022/07/23 01:18:50;;;;;;;6.15;3.90;;;;;;;-148.14;100.00;65945.72;5036029;28;20034;-84
2022/07/23 01:21:18;;;;;;;6.10;4.18;;;;;;;-148.14;100.00;65945.72;4983762;28;20033;-86
2022/07/23 01:23:43;;;;;;;3.88;3.55;;;;;;;-148.14;100.00;65945.72;5017275;28;20531;-86
2022/07/23 01:26:09;;;;;;;5.05;3.30;;;;;;;-148.14;100.00;65945.72;4999563;28;20042;-84
2022/07/23 01:28:35;;;;;;;7.53;4.28;;;;;;;-148.14;100.00;65945.72;5028965;28;20021;-84
2022/07/23 01:31:00;;;;;;;5.07;3.47;;;;;;;-148.14;100.00;65945.72;5017818;28;20120;-85
2022/07/23 01:33:26;;;;;;;4.25;3.60;;;;;;;-148.14;100.00;65945.72;5005873;28;20431;-84
2022/07/23 01:35:51;;;;;;;6.00;4.45;;;;;;;-148.14;100.00;65945.72;5001050;28;20448;-85
2022/07/23 01:38:17;;;;;;;4.85;3.72;;;;;;;-148.14;100.00;65945.72;4998142;28;20041;-86
2022/07/23 01:40:44;;;;;;;7.82;4.40;;;;;;;-148.14;100.00;65945.72;5013127;28;20068;-85
2022/07/23 01:43:09;;;;;;;6.20;3.80;;;;;;;-148.14;100.00;65945.72;4972991;28;20054;-85
2022/07/23 01:45:35;;;;;;;7.22;3.80;;;;;;;-148.14;100.00;65945.72;4994479;28;20065;-83
2022/07/23 01:48:01;;;;;;;8.18;4.18;;;;;;;-148.14;100.00;65945.72;4995824;28;20046;-84
2022/07/23 01:50:27;;;;;;;7.90;4.20;;;;;;;-148.14;100.00;65945.72;4978082;28;20030;-84
2022/07/23 01:52:53;;;;;;;5.68;3.80;;;;;;;-148.14;100.00;65945.72;4972163;28;20033;-83
2022/07/23 01:55:19;;;;;;;7.82;3.85;;;;;;;-148.14;100.00;65945.72;5010852;28;20496;-84
2022/07/23 01:57:46;;;;;;;6.90;3.92;;;;;;;-148.14;100.00;65945.72;4977657;28;20046;-84
2022/07/23 02:00:11;;;;;;;6.72;4.35;;;;;;;-148.14;100.00;65945.72;5008459;28;20384;-83
2022/07/23 02:02:37;;;;;;;6.22;4.00;;;;;;;-148.14;100.00;65945.72;5000792;28;20050;-83
2022/07/23 02:05:03;;;;;;;8.65;4.53;;;;;;;-148.14;100.00;65945.72;4977582;28;20034;-85
2022/07/23 02:07:28;;;;;;;5.40;3.50;;;;;;;-148.14;100.00;65945.72;4984647;28;20491;-83
2022/07/23 02:09:54;;;;;;;5.35;4.15;;;;;;;-148.14;100.00;65945.72;4999405;28;20124;-83
2022/07/23 02:12:20;;;;;;;8.05;4.40;;;;;;;-148.14;100.00;65945.72;4983930;28;20157;-83
2022/07/23 02:14:46;;;;;;;4.30;3.63;;;;;;;-148.14;100.00;65945.72;5005555;28;20503;-84
2022/07/23 02:17:11;;;;;;;5.95;4.43;;;;;;;-148.14;100.00;65945.72;4976401;28;20428;-84
2022/07/23 02:19:37;;;;;;;5.45;3.95;;;;;;;-148.14;100.00;65945.72;5002278;28;20057;-84
2022/07/23 02:22:02;;;;;;;7.47;4.38;;;;;;;-148.14;100.00;65945.72;4977724;28;20031;-84
2022/07/23 02:24:28;;;;;;;11.23;4.07;;;;;;;-148.14;100.00;65945.72;4982342;28;20035;-83
2022/07/23 02:26:53;;;;;;;5.22;3.85;;;;;;;-148.14;100.00;65945.72;5000690;28;20033;-85
2022/07/23 02:29:19;;;;;;;6.28;4.22;;;;;;;-148.14;100.00;65945.72;5007806;28;20492;-84
2022/07/23 02:31:45;;;;;;;5.63;4.22;;;;;;;-148.14;100.00;65945.72;4994829;28;20038;-85
2022/07/23 02:34:11;;;;;;;4.72;3.88;;;;;;;-148.14;100.00;65945.72;5002657;28;20026;-84
2022/07/23 02:36:39;;;;;;;6.70;4.10;;;;;;;-148.14;100.00;65945.72;4979146;28;20034;-84
2022/07/23 02:39:04;;;;;;;4.90;4.35;;;;;;;-148.14;100.00;65945.72;5001434;28;20053;-83
2022/07/23 02:41:30;;;;;;;5.63;4.43;;;;;;;-148.14;100.00;65945.72;5000917;28;20025;-84
2022/07/23 02:43:56;;;;;;;5.45;4.55;;;;;;;-148.14;100.00;65945.72;5011996;28;20057;-84
2022/07/23 02:46:22;;;;;;;6.75;4.78;;;;;;;-148.14;100.00;65945.72;5020604;28;20061;-84
2022/07/23 02:48:48;;;;;;;7.63;5.25;;;;;;;-148.14;100.00;65945.72;4982903;28;20111;-85
2022/07/23 02:51:14;;;;;;;5.95;4.80;;;;;;;-148.14;100.00;65945.72;5028041;28;20475;-85
2022/07/23 02:53:40;;;;;;;5.38;4.72;;;;;;;-148.14;100.00;65945.72;5005013;28;20396;-84
2022/07/23 02:56:06;;;;;;;10.30;5.00;;;;;;;-148.14;100.00;65945.72;5008128;28;20723;-85
2022/07/23 02:58:32;;;;;;;7.70;4.95;;;;;;;-148.14;100.00;65945.72;5020800;28;20116;-85
2022/07/23 03:00:57;;;;;;;7.85;5.10;;;;;;;-148.14;100.00;65945.72;5012659;28;20361;-84
2022/07/23 03:03:23;;;;;;;8.88;5.13;;;;;;;-148.14;100.00;65945.72;5003206;28;20499;-83
2022/07/23 03:05:49;;;;;;;8.43;5.97;;;;;;;-148.14;100.00;65945.72;5026609;28;20038;-87
2022/07/23 03:08:15;;;;;;;6.15;5.28;;;;;;;-148.14;100.00;65945.72;5009063;28;20029;-85
2022/07/23 03:10:41;;;;;;;11.93;6.13;;;;;;;-148.14;100.00;65945.72;5015584;28;20471;-85
2022/07/23 03:13:06;;;;;;;11.35;7.00;;;;;;;-148.14;100.00;65945.72;5017025;28;20045;-85
2022/07/23 03:15:32;;;;;;;11.38;7.38;;;;;;;-148.14;100.00;65945.72;5012509;28;20420;-87
2022/07/23 03:17:58;;;;;;;9.27;8.07;;;;;;;-148.14;100.00;65945.72;4997341;28;20042;-85
2022/07/23 03:20:23;;;;;;;14.43;9.93;;;;;;;-148.14;100.00;65945.72;5020495;28;20072;-85
2022/07/23 03:22:49;;;;;;;17.38;10.18;;;;;;;-148.14;100.00;65945.72;5003179;28;20388;-85
2022/07/23 03:25:14;;;;;;;19.00;11.85;;;;;;;-148.14;100.00;65945.72;5004442;28;20408;-84
2022/07/23 03:27:40;;;;;;;23.90;11.73;;;;;;;-148.14;100.00;65945.72;5014296;28;20025;-86
2022/07/23 03:30:07;;;;;;;22.33;12.07;;;;;;;-148.14;100.00;65945.72;5007175;28;20048;-86
2022/07/23 03:32:32;;;;;;;26.40;13.07;;;;;;;-148.14;100.00;65945.72;4996244;28;20496;-86
2022/07/23 03:34:58;;;;;;;26.10;14.23;;;;;;;-148.14;100.00;65945.72;4995735;28;20038;-88
2022/07/23 03:37:24;;;;;;;38.00;19.27;;;;;;;-148.14;100.00;65945.72;5004377;28;20045;-84
2022/07/23 03:39:50;;;;;;;39.17;19.60;;;;;;;-148.14;100.00;65945.72;5014426;28;20026;-86
2022/07/23 03:42:16;;;;;;;44.58;19.88;;;;;;;-148.14;100.00;65945.72;5024686;28;20044;-87
2022/07/23 03:44:42;;;;;;;56.70;26.02;;;;;;;-148.14;100.00;65945.72;5022929;28;20083;-85
2022/07/23 03:47:07;;;;;;;61.33;29.23;;;;;;;-148.14;100.00;65945.72;5008390;28;20043;-86
2022/07/23 03:49:33;;;;;;;60.83;29.25;;;;;;;-148.14;100.00;65945.72;5032815;28;20095;-84
2022/07/23 03:51:59;;;;;;;50.22;28.30;;;;;;;-148.14;100.00;65945.72;5013247;28;20387;-85
2022/07/23 03:54:25;;;;;;;45.03;25.02;;;;;;;-148.14;100.00;65945.72;5031137;28;20105;-85
2022/07/23 03:56:50;;;;;;;44.08;24.48;;;;;;;-148.14;100.00;65945.72;5025079;28;20087;-85
2022/07/23 03:59:16;;;;;;;44.83;24.05;;;;;;;-148.14;100.00;65945.72;5002262;28;20049;-85
2022/07/23 04:01:41;;;;;;;37.72;22.02;;;;;;;-148.14;100.00;65945.72;5014753;28;20041;-85
2022/07/23 04:04:08;;;;;;;41.78;23.23;;;;;;;-148.14;100.00;65945.72;5025220;28;20045;-86
2022/07/23 04:06:35;;;;;;;40.60;23.65;;;;;;;-148.14;100.00;65945.72;5034904;28;20519;-88
2022/07/23 04:09:01;;;;;;;40.50;22.27;;;;;;;-148.14;100.00;65945.72;5019931;28;20048;-87
2022/07/23 04:11:27;;;;;;;40.40;22.08;;;;;;;-148.14;100.00;65945.72;5008378;28;20105;-86
2022/07/23 04:13:53;;;;;;;43.25;24.30;;;;;;;-148.14;100.00;65945.72;5027181;28;20525;-84
2022/07/23 04:16:18;;;;;;;53.53;27.75;;;;;;;-148.14;100.00;65945.72;5000862;28;20463;-85
2022/07/23 04:18:44;;;;;;;49.35;25.92;;;;;;;-148.14;100.00;65945.72;5029048;28;20037;-85
2022/07/23 04:21:09;;;;;;;50.20;26.55;;;;;;;-148.14;100.00;65945.72;5016066;28;20065;-85
2022/07/23 04:23:35;;;;;;;50.15;28.23;;;;;;;-148.14;100.00;65945.72;5024281;28;20087;-84
2022/07/23 04:26:00;;;;;;;53.80;27.67;;;;;;;-148.14;100.00;65945.72;5015365;28;20030;-85
2022/07/23 04:28:26;;;;;;;53.30;27.48;;;;;;;-148.14;100.00;65945.72;5032534;28;20032;-86
2022/07/23 04:30:51;;;;;;;55.05;27.73;;;;;;;-148.14;100.00;65945.72;5013211;28;20024;-86
2022/07/23 04:33:17;;;;;;;54.28;26.42;;;;;;;-148.14;100.00;65945.72;5015836;28;20026;-84
2022/07/23 04:35:43;;;;;;;55.40;26.42;;;;;;;-148.14;100.00;65945.72;5025026;28;20038;-84
2022/07/23 04:38:08;;;;;;;45.60;24.83;;;;;;;-148.14;100.00;65945.72;5024410;28;20025;-86
2022/07/23 04:40:34;;;;;;;42.97;22.10;;;;;;;-148.14;100.00;65945.72;5036140;28;20037;-85
2022/07/23 04:43:00;;;;;;;43.63;22.42;;;;;;;-148.14;100.00;65945.72;5025278;28;20058;-85
2022/07/23 04:45:26;;;;;;;37.67;20.88;;;;;;;-148.14;100.00;65945.72;5015487;28;20557;-86
2022/07/23 04:47:51;;;;;;;36.72;19.25;;;;;;;-148.14;100.00;65945.72;4999312;28;20029;-88
2022/07/23 04:50:21;;;;;;;37.33;20.13;;;;;;;-148.14;100.00;65945.72;4999074;28;20030;-85
2022/07/23 04:52:52;;;;;;;34.75;20.10;;;;;;;-148.14;100.00;65945.72;4999426;28;20046;-86
2022/07/23 04:55:18;;;;;;;36.67;19.33;;;;;;;-148.14;100.00;65945.72;5017077;28;20061;-86
2022/07/23 04:57:44;;;;;;;35.60;20.50;;;;;;;-148.14;100.00;65945.72;4999580;28;20100;-88
2022/07/23 05:00:13;;;;;;;48.35;25.90;;;;;;;-148.14;100.00;65945.72;5015771;28;20040;-86
2022/07/23 05:02:38;;;;;;;45.67;24.38;;;;;;;-148.14;100.00;65945.72;4999719;28;20124;-86
2022/07/23 05:05:04;;;;;;;39.03;22.02;;;;;;;-148.14;100.00;65945.72;5000229;28;20059;-88
2022/07/23 05:07:30;;;;;;;40.83;22.40;;;;;;;-148.14;100.00;65945.72;5016449;28;20030;-86
2022/07/23 05:09:55;;;;;;;34.88;20.73;;;;;;;-148.14;100.00;65945.72;5018064;28;20064;-87
2022/07/23 05:12:21;;;;;;;36.47;20.02;;;;;;;-148.14;100.00;65945.72;5018569;28;20034;-87
2022/07/23 05:15:10;;;;;;;36.08;20.67;;;;;;;-148.14;100.00;65945.72;5000797;28;20488;-85
2022/07/23 05:17:56;;;;;;;33.35;20.23;;;;;;;-148.14;100.00;65945.72;4999177;28;20055;-85
2022/07/23 05:20:22;;;;;;;35.75;19.73;;;;;;;-148.14;100.00;65945.72;5028561;28;20105;-86
2022/07/23 05:22:48;;;;;;;36.33;20.88;;;;;;;-148.14;100.00;65945.72;5008650;28;20038;-83
2022/07/23 05:25:14;;;;;;;35.70;22.13;;;;;;;-148.14;100.00;65945.72;4982761;28;20033;-85
2022/07/23 05:27:39;;;;;;;42.40;23.10;;;;;;;-148.14;100.00;65945.72;5006271;28;20483;-84
2022/07/23 05:30:05;;;;;;;41.63;22.92;;;;;;;-148.14;100.00;65945.72;4985498;28;20479;-84
2022/07/23 05:32:32;;;;;;;55.30;29.23;;;;;;;-148.14;100.00;65945.72;5028496;28;20022;-83
2022/07/23 05:34:58;;;;;;;48.63;25.70;;;;;;;-148.14;100.00;65945.72;5020534;28;20116;-84
2022/07/23 05:37:23;;;;;;;48.63;26.58;;;;;;;-148.14;100.00;65945.72;5011278;28;20069;-85
2022/07/23 05:39:49;;;;;;;47.28;26.80;;;;;;;-148.14;100.00;65945.72;5004173;28;20036;-84
2022/07/23 05:42:14;;;;;;;41.50;23.98;;;;;;;-148.14;100.00;65945.72;5026537;28;20116;-85
2022/07/23 05:44:40;;;;;;;42.65;23.55;;;;;;;-148.14;100.00;65945.72;5028848;28;20068;-84
2022/07/23 05:47:06;;;;;;;42.88;24.40;;;;;;;-148.14;100.00;65945.72;5021724;28;20026;-86
2022/07/23 05:49:31;;;;;;;41.45;24.35;;;;;;;-148.14;100.00;65945.72;5019873;28;20036;-87
2022/07/23 05:51:57;;;;;;;46.42;25.30;;;;;;;-148.14;100.00;65945.72;5003980;28;20080;-88
2022/07/23 05:54:22;;;;;;;42.90;25.95;;;;;;;-148.14;100.00;65945.72;5017900;28;20034;-84
2022/07/23 05:56:50;;;;;;;48.72;28.48;;;;;;;-148.14;100.00;65945.72;5004293;28;20116;-88
2022/07/23 05:59:15;;;;;;;43.75;26.88;;;;;;;-148.14;100.00;65945.72;5030749;28;20372;-88
2022/07/23 06:01:41;;;;;;;44.25;26.23;;;;;;;-148.14;100.00;65945.72;5016464;28;20030;-87
2022/07/23 06:04:10;;;;;;;45.97;27.25;;;;;;;-148.14;100.00;65945.72;5011098;28;20506;-87
2022/07/23 06:06:35;;;;;;;46.47;26.80;;;;;;;-148.14;100.00;65945.72;5010816;28;20536;-85
2022/07/23 06:09:01;;;;;;;44.15;26.20;;;;;;;-148.14;100.00;65945.72;5016726;28;20037;-85
2022/07/23 06:11:27;;;;;;;47.33;26.50;;;;;;;-148.14;100.00;65945.72;5010918;28;20038;-84
2022/07/23 06:13:52;;;;;;;49.03;27.15;;;;;;;-148.14;100.00;65945.72;5023872;28;20029;-85
2022/07/23 06:16:18;;;;;;;44.92;26.23;;;;;;;-148.14;100.00;65945.72;5001889;28;20029;-85
2022/07/23 06:18:44;;;;;;;46.85;26.00;;;;;;;-148.14;100.00;65945.72;5025347;28;20091;-83
2022/07/23 06:21:09;;;;;;;50.03;26.83;;;;;;;-148.14;100.00;65945.72;5011804;28;20080;-85
2022/07/23 06:23:35;;;;;;;57.63;29.60;;;;;;;-148.14;100.00;65945.72;5021898;28;20475;-84
2022/07/23 06:26:01;;;;;;;46.03;26.20;;;;;;;-148.14;100.00;65945.72;5025072;28;20429;-84
2022/07/23 06:28:26;;;;;;;55.92;29.67;;;;;;;-148.14;100.00;65945.72;5021769;28;20391;-85
2022/07/23 06:30:52;;;;;;;59.60;31.27;;;;;;;-148.14;100.00;65945.72;5025296;28;20022;-86
2022/07/23 06:33:18;;;;;;;55.42;28.50;;;;;;;-148.14;100.00;65945.72;5026963;28;20033;-86
2022/07/23 06:35:43;;;;;;;60.90;30.92;;;;;;;-148.14;100.00;65945.72;5010923;28;20041;-87
2022/07/23 06:38:09;;;;;;;59.75;30.60;;;;;;;-148.14;100.00;65945.72;5022114;28;20435;-86
2022/07/23 06:40:35;;;;;;;53.50;28.45;;;;;;;-148.14;100.00;65945.72;4987784;28;20037;-85
2022/07/23 06:43:01;;;;;;;56.25;28.40;;;;;;;-148.14;100.00;65945.72;5006278;28;20050;-85
2022/07/23 06:45:26;;;;;;;50.40;27.15;;;;;;;-148.14;100.00;65945.72;4998477;28;20032;-84
2022/07/23 06:47:52;;;;;;;50.33;27.88;;;;;;;-148.14;100.00;65945.72;4996794;28;20443;-87
2022/07/23 06:50:18;;;;;;;46.85;25.77;;;;;;;-148.14;100.00;65945.72;4985937;28;20057;-83
2022/07/23 06:52:44;;;;;;;44.38;24.98;;;;;;;-148.14;100.00;65945.72;5008556;28;20034;-85
2022/07/23 06:55:09;;;;;;;49.00;23.83;;;;;;;-148.14;100.00;65945.72;5020790;28;20037;-84
2022/07/23 06:57:35;;;;;;;40.30;23.25;;;;;;;-148.14;100.00;65945.72;5005479;28;20096;-84
2022/07/23 07:00:01;;;;;;;36.42;21.48;;;;;;;-148.14;100.00;65945.72;5005598;28;20029;-84
2022/07/23 07:02:27;;;;;;;35.88;20.33;;;;;;;-148.14;100.00;65945.72;5003057;28;20034;-84
2022/07/23 07:04:53;;;;;;;35.20;19.58;;;;;;;-148.14;100.00;65945.72;5022706;28;20034;-85
2022/07/23 07:07:18;;;;;;;33.58;20.02;;;;;;;-148.14;100.00;65945.72;5012091;28;20449;-84
2022/07/23 07:09:44;;;;;;;31.73;19.23;;;;;;;-148.14;100.00;65945.72;5014543;28;20029;-85
2022/07/23 07:12:11;;;;;;;32.45;19.33;;;;;;;-148.14;100.00;65945.72;5003138;28;20046;-84
2022/07/23 07:14:37;;;;;;;33.35;19.83;;;;;;;-148.14;100.00;65945.72;5003678;28;20606;-84
2022/07/23 07:17:02;;;;;;;32.03;20.08;;;;;;;-148.14;100.00;65945.72;5004157;28;20116;-84
2022/07/23 07:19:28;;;;;;;30.58;18.25;;;;;;;-148.14;100.00;65945.72;4987148;28;20121;-85
2022/07/23 07:21:54;;;;;;;32.90;20.30;;;;;;;-148.14;100.00;65945.72;5004890;28;20120;-83
2022/07/23 07:24:19;;;;;;;31.05;18.33;;;;;;;-148.14;100.00;65945.72;5002953;28;20034;-83
2022/07/23 07:26:45;;;;;;;28.77;18.55;;;;;;;-148.14;100.00;65945.72;5022036;28;20034;-83
2022/07/23 07:29:11;;;;;;;28.35;17.63;;;;;;;-148.14;100.00;65945.72;5004020;28;20044;-83
2022/07/23 07:31:36;;;;;;;30.27;17.73;;;;;;;-148.14;100.00;65945.72;5000433;28;20030;-84
2022/07/23 07:34:04;;;;;;;28.08;19.00;;;;;;;-148.14;100.00;65945.72;5007122;28;20404;-83
2022/07/23 07:36:30;;;;;;;29.55;16.63;;;;;;;-148.14;100.00;65945.72;5019618;28;20042;-82
2022/07/23 07:38:56;;;;;;;23.23;15.32;;;;;;;-148.14;100.00;65945.72;5017921;28;20033;-84
2022/07/23 07:41:25;;;;;;;21.08;14.13;;;;;;;-148.14;100.00;65945.72;5006070;28;20610;-84
2022/07/23 07:43:51;;;;;;;23.17;14.65;;;;;;;-148.14;100.00;65945.72;5008722;28;20463;-86
2022/07/23 07:46:20;;;;;;;29.50;17.98;;;;;;;-148.14;100.00;65945.72;5025032;28;20025;-86
2022/07/23 07:48:46;;;;;;;26.50;18.73;;;;;;;-148.14;100.00;65945.72;5023415;28;20049;-83
2022/07/23 07:51:11;;;;;;;32.63;18.85;;;;;;;-148.14;100.00;65945.72;5003803;28;20120;-83
2022/07/23 07:53:37;;;;;;;30.08;19.42;;;;;;;-148.14;100.00;65945.72;5010554;28;20084;-82
2022/07/23 07:56:03;;;;;;;28.08;18.85;;;;;;;-148.14;100.00;65945.72;5010112;28;20079;-83
2022/07/23 07:58:28;;;;;;;30.35;20.02;;;;;;;-148.14;100.00;65945.72;5025673;28;20392;-84
2022/07/23 08:00:54;;;;;;;26.33;18.40;;;;;;;-148.14;100.00;65945.72;5006100;28;20069;-83
2022/07/23 08:03:19;;;;;;;33.13;20.83;;;;;;;-148.14;100.00;65945.72;5022656;28;20026;-82
2022/07/23 08:05:48;;;;;;;29.88;19.77;;;;;;;-148.14;100.00;65945.72;5007887;28;20498;-80
2022/07/23 08:08:16;;;;;;;28.70;19.88;;;;;;;-148.14;100.00;65945.72;5022695;28;20040;-83
2022/07/23 08:10:43;;;;;;;27.13;18.70;;;;;;;-148.14;100.00;65945.72;5023593;28;20041;-82
2022/07/23 08:13:13;;;;;;;25.60;17.65;;;;;;;-148.14;100.00;65945.72;5003533;28;20038;-81
2022/07/23 08:15:39;;;;;;;28.95;18.02;;;;;;;-148.14;100.00;65945.72;5001116;28;20460;-81
2022/07/23 08:18:04;;;;;;;25.08;17.13;;;;;;;-148.14;100.00;65945.72;5020712;28;20080;-81
2022/07/23 08:20:30;;;;;;;21.75;16.40;;;;;;;-148.14;100.00;65945.72;4986295;28;20045;-81
2022/07/23 08:22:58;;;;;;;21.98;15.55;;;;;;;-148.14;100.00;65945.72;5004667;28;20029;-82
2022/07/23 08:25:25;;;;;;;22.40;16.05;;;;;;;-148.14;100.00;65945.72;5001313;28;20058;-82
2022/07/23 08:27:51;;;;;;;25.05;16.02;;;;;;;-148.14;100.00;65945.72;4999911;28;20033;-82
2022/07/23 08:30:18;;;;;;;24.75;14.65;;;;;;;-148.14;100.00;65945.72;4990291;28;20029;-84
2022/07/23 08:32:57;;;;;;;20.40;14.07;;;;;;;-148.14;100.00;65945.72;5015552;28;20403;-84
2022/07/23 08:35:36;;;;;;;19.55;14.13;;;;;;;-148.14;100.00;65945.72;5005011;28;20501;-82
2022/07/23 08:38:05;;;;;;;21.13;13.68;;;;;;;-148.14;100.00;65945.72;5013873;28;20052;-84
2022/07/23 08:40:34;;;;;;;16.52;13.02;;;;;;;-148.14;100.00;65945.72;5021244;28;20403;-83
2022/07/23 08:43:08;;;;;;;17.17;12.73;;;;;;;-148.14;100.00;65945.72;5002796;28;20050;-86
2022/07/23 08:45:41;;;;;;;21.50;14.68;;;;;;;-148.14;100.00;65945.72;4984251;28;20034;-83
2022/07/23 08:48:24;;;;;;;20.35;12.98;;;;;;;-148.14;100.00;65945.72;5016952;28;20118;-84
2022/07/23 08:50:56;;;;;;;18.08;13.52;;;;;;;-148.14;100.00;65945.72;5017755;28;20057;-85
2022/07/23 08:53:23;;;;;;;19.50;14.50;;;;;;;-148.14;100.00;65945.72;5012978;28;20056;-83
2022/07/23 08:55:57;;;;;;;22.90;14.52;;;;;;;-148.14;100.00;65945.72;5018804;28;20411;-85
2022/07/23 08:58:24;;;;;;;21.70;14.85;;;;;;;-148.14;100.00;65945.72;5008208;28;20029;-84
2022/07/23 09:00:50;;;;;;;22.25;15.32;;;;;;;-148.14;100.00;65945.72;5023976;28;20041;-83
2022/07/23 09:03:16;;;;;;;19.33;14.02;;;;;;;-148.14;100.00;65945.72;4998487;28;20033;-82
2022/07/23 09:05:41;;;;;;;19.60;14.38;;;;;;;-148.14;100.00;65945.72;5011472;28;20029;-82
2022/07/23 09:08:15;;;;;;;16.35;12.52;;;;;;;-148.14;100.00;65945.72;5016078;28;20037;-82
2022/07/23 09:11:02;;;;;;;17.75;13.98;;;;;;;-148.14;100.00;65945.72;5032093;28;20109;-81
2022/07/23 09:13:32;;;;;;;16.30;12.25;;;;;;;-148.14;100.00;65945.72;5003661;28;20039;-85
2022/07/23 09:16:12;;;;;;;16.10;12.32;;;;;;;-148.14;100.00;65945.72;5001576;28;20029;-84
2022/07/23 09:18:49;;;;;;;15.73;12.05;;;;;;;-148.14;100.00;65945.72;5016733;28;20520;-84
2022/07/23 09:21:16;;;;;;;15.63;12.55;;;;;;;-148.14;100.00;65945.72;5013216;28;20044;-84
2022/07/23 09:23:45;;;;;;;15.50;11.27;;;;;;;-148.14;100.00;65945.72;5027310;28;20064;-83
2022/07/23 09:26:26;;;;;;;16.17;12.18;;;;;;;-148.14;100.00;65945.72;5008042;28;20476;-82
2022/07/23 09:29:12;;;;;;;17.75;12.35;;;;;;;-148.14;100.00;65945.72;5005117;28;20541;-83
2022/07/23 09:31:56;;;;;;;15.57;10.90;;;;;;;-148.14;100.00;65945.72;5021894;28;20475;-85
2022/07/23 09:34:24;;;;;;;13.55;10.90;;;;;;;-148.14;100.00;65945.72;4993536;28;20120;-83
2022/07/23 09:36:52;;;;;;;21.63;11.45;;;;;;;-148.14;100.00;65945.72;5026773;28;20033;-84
2022/07/23 09:39:33;;;;;;;17.30;12.20;;;;;;;-148.14;100.00;65945.72;5025773;28;20079;-85
2022/07/23 09:42:16;;;;;;;18.73;12.95;;;;;;;-148.14;100.00;65945.72;5004076;28;20025;-86
2022/07/23 09:44:46;;;;;;;18.08;12.73;;;;;;;-148.14;100.00;65945.72;5027502;28;20044;-83
2022/07/23 09:47:12;;;;;;;14.38;10.93;;;;;;;-148.14;100.00;65945.72;5004367;28;21201;-82
2022/07/23 09:49:38;;;;;;;18.30;12.10;;;;;;;-148.14;100.00;65945.72;5008858;28;20028;-81
2022/07/23 09:52:04;;;;;;;15.10;12.20;;;;;;;-148.14;100.00;65945.72;4990512;28;20478;-83
2022/07/23 09:54:35;;;;;;;14.02;12.00;;;;;;;-148.14;100.00;65945.72;5007811;28;20022;-82
2022/07/23 09:57:04;;;;;;;14.75;12.52;;;;;;;-148.14;100.00;65945.72;5022736;28;20512;-82
2022/07/23 09:59:33;;;;;;;15.40;12.18;;;;;;;-148.14;100.00;65945.72;5023992;28;20041;-82
2022/07/23 10:01:59;;;;;;;22.98;13.52;;;;;;;-148.14;100.00;65945.72;5021622;28;20040;-83
2022/07/23 10:04:27;;;;;;;18.95;12.75;;;;;;;-148.14;100.00;65945.72;4994225;28;20045;-82
2022/07/23 10:06:56;;;;;;;18.48;11.82;;;;;;;-148.14;100.00;65945.72;5005540;28;20136;-84
2022/07/23 10:09:43;;;;;;;19.10;12.68;;;;;;;-148.14;100.00;65945.72;5009262;28;20030;-83
2022/07/23 10:15:10;;;;;;;15.45;13.20;;;;;;;-148.14;100.00;65945.72;5023826;28;20088;-85
2022/07/23 10:17:36;;;;;;;15.57;13.10;;;;;;;-148.14;100.00;65945.72;5023273;28;20029;-84
2022/07/23 10:20:03;;;;;;;15.88;12.75;;;;;;;-148.14;100.00;65945.72;5021417;28;20041;-82
2022/07/23 10:22:44;;;;;;;17.20;13.57;;;;;;;-148.14;100.00;65945.72;5021147;28;20113;-83
2022/07/23 10:25:23;;;;;;;17.02;12.98;;;;;;;-148.14;100.00;65945.72;4995759;28;20111;-86
2022/07/23 10:27:51;;;;;;;;;;;;;;;-148.14;100.00;65945.72;5006830;28;20059;-84
2022/07/23 10:30:21;;;;;;;15.18;12.13;;;;;;;-148.14;100.00;65945.72;5029744;28;19913;-81
2022/07/23 10:33:14;;;;;;;16.15;12.18;;;;;;;-148.14;100.00;65945.72;5006374;28;20092;-83
2022/07/23 10:35:55;;;;;;;13.47;11.43;;;;;;;-148.14;100.00;65945.72;5013082;28;20045;-85
2022/07/23 10:39:03;;;;;;;14.15;12.23;;;;;;;-148.14;100.00;65945.72;5005054;28;20036;-79
2022/07/23 10:41:35;;;;;;;14.73;12.23;;;;;;;-148.14;100.00;65945.72;5017717;28;20018;-81
2022/07/23 10:44:14;;;;;;;17.65;11.20;;;;;;;-148.14;100.00;65945.72;4989335;28;20107;-82
2022/07/23 10:49:36;;;;;;;16.60;12.00;;;;;;;-148.14;100.00;65945.72;5004253;28;20113;-82
2022/07/23 10:52:14;;;;;;;17.15;12.30;;;;;;;-148.14;100.00;65945.72;5001587;28;20029;-81
2022/07/23 10:54:51;;;;;;;20.02;13.15;;;;;;;-148.14;100.00;65945.72;4986079;28;20031;-83
2022/07/23 10:57:23;;;;;;;15.90;11.27;;;;;;;-148.14;100.00;65945.72;4984565;28;20066;-82
2022/07/23 11:00:13;;;;;;;10.98;9.82;;;;;;;-148.14;100.00;65945.72;4994575;28;20046;-83
2022/07/23 11:02:45;;;;;;;17.85;11.27;;;;;;;-148.14;100.00;65945.72;4999711;28;20104;-82
2022/07/23 11:05:13;;;;;;;13.98;11.60;;;;;;;-148.14;100.00;65945.72;5001473;28;20192;-81
2022/07/23 11:08:10;;;;;;;16.15;11.32;;;;;;;-148.14;100.00;65945.72;4995595;28;20035;-82